Eaton, Colorado
Current Conditions -  °F | °C
As of 1:55 AM on Sunday 23 Nov 2014 (Local Time) from KGXY Reporting Station
Few Clouds Few Clouds  
Wind Chill: 32°   Ceiling: Unl
Heat Index: 43°   Visibility: 10mi
Dew Point: 25°   Wind: 29mph
Humidity: 49%   Direction: 350°N
Pressure: 29.6"   Gusts: 38mph
Location:  40.53°N, 104.71°W
Report Text: KGXY 230855Z AUTO 35025G33KT 10SM FEW100 06/M04 A2960 RMK AO1 52007
Loading
Personal Weather Stations






























Interactive Weather Map New forecast layout! Learn more

10-Day Weather Forecast

Advertisements
Track Severe Weather on mobile